Time;durP1;ratioP1;P1;durP2;ratioP2;P2;SDS_P1;SDS_P2;PMS_P1;PMS_P2;Temp;Humidity;BMP_temperature;BMP_pressure;BME280_temperature;BME280_humidity;BME280_pressure;Samples;Min_cycle;Max_cycle;Signal;HPM_P1;HPM_P2
2023/04/04 00:00:04;;;;;;;5.93;3.40;;;;;;;;;;5091673;28;20405;-79
2023/04/04 00:02:30;;;;;;;7.43;3.63;;;;;;;;;;5107784;28;20425;-79
2023/04/04 00:04:56;;;;;;;6.93;3.20;;;;;;;;;;5074107;28;20418;-79
2023/04/04 00:07:22;;;;;;;8.68;3.60;;;;;;;;;;5074114;28;20418;-79
2023/04/04 00:09:48;;;;;;;6.03;3.35;;;;;;;;;;5042981;28;20427;-79
2023/04/04 00:12:14;;;;;;;8.80;3.67;;;;;;;;;;5054962;28;20395;-79
2023/04/04 00:14:40;;;;;;;8.55;3.30;;;;;;;;;;5085398;28;20415;-79
2023/04/04 00:17:06;;;;;;;6.70;3.40;;;;;;;;;;5070228;28;20511;-79
2023/04/04 00:19:32;;;;;;;6.30;3.45;;;;;;;;;;5070995;28;20407;-79
2023/04/04 00:21:58;;;;;;;6.00;3.20;;;;;;;;;;5071660;28;20403;-79
2023/04/04 00:24:25;;;;;;;5.78;3.30;;;;;;;;;;5066559;28;20457;-79
2023/04/04 00:26:51;;;;;;;7.38;3.42;;;;;;;;;;5069627;28;20946;-79
2023/04/04 00:29:17;;;;;;;7.88;3.47;;;;;;;;;;5068297;28;21089;-81
2023/04/04 00:31:43;;;;;;;7.10;3.50;;;;;;;;;;5052981;28;20423;-78
2023/04/04 00:34:09;;;;;;;7.95;3.60;;;;;;;;;;5071377;28;20753;-79
2023/04/04 00:36:35;;;;;;;5.95;3.67;;;;;;;;;;5054087;28;20415;-79
2023/04/04 00:39:02;;;;;;;7.45;4.00;;;;;;;;;;5050762;28;20421;-79
2023/04/04 00:41:28;;;;;;;7.32;4.00;;;;;;;;;;5052043;28;20426;-79
2023/04/04 00:43:55;;;;;;;8.43;3.83;;;;;;;;;;5052734;28;20416;-79
2023/04/04 00:46:22;;;;;;;7.40;4.00;;;;;;;;;;5048657;28;20776;-79
2023/04/04 00:48:50;;;;;;;6.90;3.87;;;;;;;;;;5051181;28;20539;-78
2023/04/04 00:51:16;;;;;;;6.78;4.15;;;;;;;;;;5078537;28;20412;-79
2023/04/04 00:53:44;;;;;;;7.45;4.22;;;;;;;;;;5067458;28;20423;-80
2023/04/04 00:56:10;;;;;;;8.40;4.10;;;;;;;;;;5086450;28;20410;-80
2023/04/04 00:58:36;;;;;;;8.00;4.35;;;;;;;;;;5052450;28;20454;-80
2023/04/04 01:01:02;;;;;;;8.15;4.60;;;;;;;;;;5034813;28;20815;-79
2023/04/04 01:03:29;;;;;;;9.43;4.38;;;;;;;;;;5069739;28;20429;-80
2023/04/04 01:05:55;;;;;;;10.55;4.47;;;;;;;;;;5056156;28;20842;-79
2023/04/04 01:08:24;;;;;;;9.07;4.45;;;;;;;;;;5070341;28;20407;-79
2023/04/04 01:10:50;;;;;;;7.30;4.50;;;;;;;;;;5055524;28;20407;-79
2023/04/04 01:13:16;;;;;;;6.30;4.38;;;;;;;;;;5045796;28;20931;-79
2023/04/04 01:15:43;;;;;;;9.43;4.93;;;;;;;;;;5099533;28;20415;-79
2023/04/04 01:18:10;;;;;;;7.55;4.40;;;;;;;;;;5067063;28;20416;-79
2023/04/04 01:20:41;;;;;;;8.80;5.18;;;;;;;;;;5053733;28;20415;-79
2023/04/04 01:23:09;;;;;;;8.05;4.70;;;;;;;;;;5053943;28;20432;-80
2023/04/04 01:25:35;;;;;;;7.88;5.03;;;;;;;;;;5050831;28;20415;-80
2023/04/04 01:28:01;;;;;;;9.50;4.80;;;;;;;;;;5031653;28;20433;-80
2023/04/04 01:30:30;;;;;;;9.20;4.85;;;;;;;;;;5051063;28;20436;-80
2023/04/04 01:33:00;;;;;;;8.90;4.70;;;;;;;;;;5051183;28;20417;-80
2023/04/04 01:35:37;;;;;;;9.37;5.03;;;;;;;;;;5058073;28;20515;-80
2023/04/04 01:38:13;;;;;;;9.75;5.20;;;;;;;;;;5050608;28;20440;-80
2023/04/04 01:40:40;;;;;;;9.32;5.47;;;;;;;;;;5093801;28;20419;-79
2023/04/04 01:43:07;;;;;;;9.67;5.30;;;;;;;;;;5051205;28;20423;-79
2023/04/04 01:45:34;;;;;;;10.30;5.38;;;;;;;;;;5036754;28;20424;-79
2023/04/04 01:48:00;;;;;;;8.88;5.10;;;;;;;;;;5058436;28;20499;-79
2023/04/04 01:50:26;;;;;;;9.17;5.37;;;;;;;;;;5051560;28;20503;-78
2023/04/04 01:52:52;;;;;;;10.48;5.82;;;;;;;;;;5070092;28;20891;-79
2023/04/04 01:55:19;;;;;;;11.37;5.57;;;;;;;;;;5053006;28;20457;-79
2023/04/04 01:57:46;;;;;;;9.55;5.80;;;;;;;;;;5053167;28;20438;-79
2023/04/04 02:00:12;;;;;;;12.60;5.55;;;;;;;;;;5051753;28;20459;-79
2023/04/04 02:02:38;;;;;;;10.25;5.38;;;;;;;;;;5052531;28;20760;-79
2023/04/04 02:05:04;;;;;;;9.13;5.88;;;;;;;;;;5068257;28;20469;-79
2023/04/04 02:07:30;;;;;;;11.30;5.80;;;;;;;;;;5087086;28;20500;-79
2023/04/04 02:09:56;;;;;;;11.77;5.95;;;;;;;;;;5056132;28;20421;-79
2023/04/04 02:12:22;;;;;;;11.82;6.05;;;;;;;;;;5039675;28;20429;-79
2023/04/04 02:14:48;;;;;;;12.40;5.97;;;;;;;;;;5076191;28;20415;-78
2023/04/04 02:17:15;;;;;;;9.60;5.60;;;;;;;;;;5075337;28;20418;-79
2023/04/04 02:19:41;;;;;;;10.40;6.18;;;;;;;;;;5074332;28;20429;-79
2023/04/04 02:22:07;;;;;;;11.17;5.80;;;;;;;;;;5073788;28;20901;-79
2023/04/04 02:24:33;;;;;;;8.32;5.80;;;;;;;;;;5059494;28;20414;-79
2023/04/04 02:26:59;;;;;;;11.40;6.32;;;;;;;;;;5074549;28;20450;-78
2023/04/04 02:29:25;;;;;;;11.23;5.80;;;;;;;;;;5088964;28;20420;-78
2023/04/04 02:31:51;;;;;;;11.55;5.80;;;;;;;;;;5093137;28;20410;-78
2023/04/04 02:34:17;;;;;;;12.00;5.93;;;;;;;;;;5083271;28;20410;-78
2023/04/04 02:36:44;;;;;;;10.80;6.18;;;;;;;;;;5092312;28;20421;-77
2023/04/04 02:39:10;;;;;;;11.07;6.03;;;;;;;;;;5058476;28;20555;-78
2023/04/04 02:41:36;;;;;;;10.25;6.10;;;;;;;;;;5075030;28;20426;-78
2023/04/04 02:44:02;;;;;;;9.52;5.70;;;;;;;;;;5107060;28;20404;-78
2023/04/04 02:46:28;;;;;;;12.05;6.05;;;;;;;;;;5083247;28;20929;-78
2023/04/04 02:48:54;;;;;;;11.32;6.05;;;;;;;;;;5075277;28;20769;-79
2023/04/04 02:51:21;;;;;;;11.13;5.78;;;;;;;;;;5070760;28;20404;-79
2023/04/04 02:53:47;;;;;;;11.63;6.63;;;;;;;;;;5104715;28;20441;-79
2023/04/04 02:56:13;;;;;;;9.38;6.13;;;;;;;;;;5062441;28;20427;-79
2023/04/04 02:58:39;;;;;;;11.13;5.82;;;;;;;;;;5083230;28;20980;-79
2023/04/04 03:01:05;;;;;;;11.60;6.20;;;;;;;;;;5048417;28;20976;-79
2023/04/04 03:03:31;;;;;;;12.27;6.90;;;;;;;;;;5079654;28;20419;-78
2023/04/04 03:05:58;;;;;;;12.63;5.97;;;;;;;;;;5081129;28;20427;-78
2023/04/04 03:08:25;;;;;;;12.50;6.03;;;;;;;;;;5028752;28;20901;-78
2023/04/04 03:10:51;;;;;;;10.68;5.90;;;;;;;;;;5056327;28;20418;-78
2023/04/04 03:13:17;;;;;;;11.13;6.03;;;;;;;;;;5073863;28;20442;-76
2023/04/04 03:15:43;;;;;;;9.87;5.97;;;;;;;;;;5058351;28;20975;-77
2023/04/04 03:18:09;;;;;;;8.60;5.10;;;;;;;;;;5074008;28;20460;-81
2023/04/04 03:20:36;;;;;;;9.77;5.50;;;;;;;;;;5073275;28;20420;-81
2023/04/04 03:23:02;;;;;;;11.73;5.87;;;;;;;;;;5107728;28;20422;-81
2023/04/04 03:25:28;;;;;;;9.70;5.68;;;;;;;;;;5067409;28;20404;-80
2023/04/04 03:27:55;;;;;;;11.20;5.93;;;;;;;;;;5075836;28;20440;-81
2023/04/04 03:30:21;;;;;;;10.63;6.10;;;;;;;;;;5058600;28;20406;-81
2023/04/04 03:32:47;;;;;;;9.82;6.05;;;;;;;;;;5092591;28;20405;-82
2023/04/04 03:35:13;;;;;;;11.48;6.22;;;;;;;;;;5069195;28;20414;-82
2023/04/04 03:37:39;;;;;;;10.85;6.35;;;;;;;;;;5087787;28;20425;-82
2023/04/04 03:40:06;;;;;;;10.68;6.35;;;;;;;;;;5075095;28;20559;-82
2023/04/04 03:42:35;;;;;;;14.10;6.27;;;;;;;;;;5041704;28;20893;-83
2023/04/04 03:45:01;;;;;;;10.82;6.57;;;;;;;;;;5092020;28;20463;-83
2023/04/04 03:47:28;;;;;;;10.68;6.53;;;;;;;;;;5088925;28;20896;-83
2023/04/04 03:49:55;;;;;;;10.95;6.30;;;;;;;;;;5075078;28;20417;-83
2023/04/04 03:52:21;;;;;;;11.30;6.40;;;;;;;;;;5103018;28;20414;-78
2023/04/04 03:54:47;;;;;;;10.98;6.25;;;;;;;;;;5073391;28;20414;-78
2023/04/04 03:57:13;;;;;;;11.05;6.35;;;;;;;;;;5074259;28;20840;-78
2023/04/04 03:59:39;;;;;;;11.70;6.13;;;;;;;;;;5047453;28;20444;-78
2023/04/04 04:02:05;;;;;;;12.13;6.55;;;;;;;;;;5091049;28;20441;-77
2023/04/04 04:04:31;;;;;;;11.97;6.87;;;;;;;;;;5072539;28;20483;-78
2023/04/04 04:06:57;;;;;;;11.57;6.88;;;;;;;;;;5058498;28;20566;-78
2023/04/04 04:09:23;;;;;;;14.23;6.85;;;;;;;;;;5065162;28;20413;-78
2023/04/04 04:11:49;;;;;;;10.07;6.30;;;;;;;;;;5073831;28;20446;-78
2023/04/04 04:14:16;;;;;;;11.75;6.50;;;;;;;;;;5067737;28;20428;-78
2023/04/04 04:16:42;;;;;;;12.90;7.60;;;;;;;;;;5090866;28;20866;-77
2023/04/04 04:19:08;;;;;;;11.63;6.55;;;;;;;;;;5070304;28;20905;-78
2023/04/04 04:21:34;;;;;;;11.80;7.22;;;;;;;;;;5074755;28;20410;-78
2023/04/04 04:24:00;;;;;;;11.07;6.60;;;;;;;;;;5087825;28;20464;-78
2023/04/04 04:26:27;;;;;;;13.18;7.63;;;;;;;;;;5057073;28;20505;-77
2023/04/04 04:28:53;;;;;;;13.10;7.00;;;;;;;;;;5070088;28;20444;-78
2023/04/04 04:31:19;;;;;;;12.13;6.75;;;;;;;;;;5066300;28;20423;-77
2023/04/04 04:33:45;;;;;;;12.43;7.30;;;;;;;;;;5052213;28;20429;-77
2023/04/04 04:36:11;;;;;;;12.03;7.10;;;;;;;;;;5072946;28;20470;-78
2023/04/04 04:38:37;;;;;;;11.23;6.60;;;;;;;;;;5053925;28;20425;-77
2023/04/04 04:41:03;;;;;;;11.73;6.82;;;;;;;;;;5074227;28;20853;-77
2023/04/04 04:43:29;;;;;;;12.65;7.05;;;;;;;;;;5067756;28;21055;-78
2023/04/04 04:45:55;;;;;;;10.87;6.97;;;;;;;;;;5071954;28;20457;-78
2023/04/04 04:48:22;;;;;;;15.63;7.93;;;;;;;;;;5067037;28;20414;-77
2023/04/04 04:50:48;;;;;;;13.93;7.28;;;;;;;;;;5056570;28;20816;-78
2023/04/04 04:53:14;;;;;;;13.02;7.75;;;;;;;;;;5080001;28;20761;-78
2023/04/04 04:55:41;;;;;;;11.63;7.30;;;;;;;;;;5074672;28;20432;-77
2023/04/04 04:58:09;;;;;;;13.93;8.15;;;;;;;;;;5074351;28;20459;-77
2023/04/04 05:00:36;;;;;;;14.23;8.50;;;;;;;;;;5073328;28;20422;-77
2023/04/04 05:03:05;;;;;;;14.75;9.63;;;;;;;;;;5066635;28;20429;-77
2023/04/04 05:05:32;;;;;;;13.43;8.80;;;;;;;;;;5086795;28;20418;-77
2023/04/04 05:07:58;;;;;;;12.55;7.70;;;;;;;;;;5106260;28;20763;-77
2023/04/04 05:10:24;;;;;;;15.80;9.02;;;;;;;;;;5083798;28;20409;-78
2023/04/04 05:12:50;;;;;;;16.05;9.80;;;;;;;;;;5090707;28;20959;-78
2023/04/04 05:15:16;;;;;;;15.73;10.60;;;;;;;;;;5037411;28;20415;-78
2023/04/04 05:17:43;;;;;;;16.90;9.82;;;;;;;;;;5072517;28;20425;-78
2023/04/04 05:20:09;;;;;;;14.43;8.55;;;;;;;;;;5074873;28;20446;-78
2023/04/04 05:22:35;;;;;;;14.02;8.95;;;;;;;;;;5074168;28;20421;-77
2023/04/04 05:25:02;;;;;;;14.25;9.10;;;;;;;;;;5039145;28;20413;-78
2023/04/04 05:27:28;;;;;;;14.10;8.27;;;;;;;;;;5037069;28;20427;-77
2023/04/04 05:29:54;;;;;;;14.30;8.25;;;;;;;;;;5061422;28;20453;-77
2023/04/04 05:32:20;;;;;;;12.98;8.13;;;;;;;;;;5081590;28;20414;-78
2023/04/04 05:34:46;;;;;;;12.40;8.15;;;;;;;;;;5072648;28;20418;-78
2023/04/04 05:37:12;;;;;;;15.32;8.93;;;;;;;;;;5080474;28;20421;-82
2023/04/04 05:39:38;;;;;;;12.40;7.45;;;;;;;;;;5074370;28;20406;-82
2023/04/04 05:42:04;;;;;;;15.18;9.00;;;;;;;;;;5059709;28;20772;-82
2023/04/04 05:44:30;;;;;;;13.20;7.80;;;;;;;;;;5061361;28;20796;-82
2023/04/04 05:46:56;;;;;;;11.50;7.03;;;;;;;;;;5044453;28;20422;-83
2023/04/04 05:49:22;;;;;;;12.77;7.80;;;;;;;;;;5087885;28;20424;-82
2023/04/04 05:51:48;;;;;;;11.98;7.43;;;;;;;;;;5105895;28;20909;-84
2023/04/04 05:54:14;;;;;;;11.65;7.85;;;;;;;;;;5076952;28;20447;-82
2023/04/04 05:56:40;;;;;;;10.60;7.20;;;;;;;;;;5040462;28;20521;-81
2023/04/04 05:59:06;;;;;;;13.05;7.25;;;;;;;;;;5074070;28;20415;-82
2023/04/04 06:01:32;;;;;;;12.75;8.10;;;;;;;;;;5069812;28;20422;-82
2023/04/04 06:03:59;;;;;;;11.40;7.43;;;;;;;;;;5076410;28;20414;-83
2023/04/04 06:06:26;;;;;;;12.40;7.07;;;;;;;;;;5078279;28;20430;-82
2023/04/04 06:08:52;;;;;;;11.70;7.22;;;;;;;;;;5092906;28;20417;-82
2023/04/04 06:11:18;;;;;;;10.52;7.00;;;;;;;;;;5089972;28;20470;-82
2023/04/04 06:13:44;;;;;;;12.90;7.28;;;;;;;;;;5039417;28;20444;-83
2023/04/04 06:16:10;;;;;;;11.18;7.25;;;;;;;;;;5070356;28;20898;-82
2023/04/04 06:18:37;;;;;;;16.42;9.15;;;;;;;;;;5057833;28;20452;-81
2023/04/04 06:21:03;;;;;;;11.10;7.15;;;;;;;;;;5066680;28;20514;-76
2023/04/04 06:23:29;;;;;;;11.55;7.03;;;;;;;;;;5059387;28;20431;-77
2023/04/04 06:25:55;;;;;;;11.27;6.50;;;;;;;;;;5074616;28;20899;-79
2023/04/04 06:28:22;;;;;;;10.50;6.10;;;;;;;;;;5069265;28;20422;-79
2023/04/04 06:30:49;;;;;;;10.32;5.60;;;;;;;;;;5047993;28;20421;-81
2023/04/04 06:33:15;;;;;;;10.65;6.38;;;;;;;;;;5067853;28;20423;-81
2023/04/04 06:35:41;;;;;;;9.45;6.00;;;;;;;;;;5039797;28;20432;-82
2023/04/04 06:38:08;;;;;;;9.85;5.85;;;;;;;;;;5084843;28;20416;-82
2023/04/04 06:40:35;;;;;;;9.15;5.35;;;;;;;;;;5049949;28;20418;-79
2023/04/04 06:43:01;;;;;;;8.32;5.40;;;;;;;;;;5049149;28;20478;-81
2023/04/04 06:45:27;;;;;;;7.22;5.22;;;;;;;;;;5085679;28;20916;-81
2023/04/04 06:47:54;;;;;;;9.10;5.60;;;;;;;;;;5068638;28;20640;-81
2023/04/04 06:50:21;;;;;;;9.80;5.38;;;;;;;;;;5057964;28;20443;-81
2023/04/04 06:52:48;;;;;;;12.70;5.63;;;;;;;;;;5074032;28;20461;-81
2023/04/04 06:55:15;;;;;;;9.80;5.45;;;;;;;;;;5075498;28;20425;-81
2023/04/04 06:57:41;;;;;;;9.52;5.05;;;;;;;;;;5061954;28;20778;-80
2023/04/04 07:00:08;;;;;;;7.13;4.97;;;;;;;;;;5074140;28;20512;-81
2023/04/04 07:02:34;;;;;;;9.68;4.90;;;;;;;;;;5080110;28;20431;-82
2023/04/04 07:05:00;;;;;;;9.93;5.85;;;;;;;;;;5041027;28;20415;-82
2023/04/04 07:07:26;;;;;;;9.13;4.68;;;;;;;;;;5084927;28;20834;-81
2023/04/04 07:09:52;;;;;;;7.93;4.03;;;;;;;;;;5082919;28;20417;-81
2023/04/04 07:12:18;;;;;;;8.55;4.40;;;;;;;;;;5067615;28;20427;-80
2023/04/04 07:14:44;;;;;;;7.10;3.78;;;;;;;;;;5065555;28;20435;-82
2023/04/04 07:17:10;;;;;;;6.90;3.67;;;;;;;;;;5052430;28;20424;-83
2023/04/04 07:19:37;;;;;;;8.60;4.10;;;;;;;;;;5054661;28;20513;-82
2023/04/04 07:22:03;;;;;;;8.48;4.43;;;;;;;;;;5056730;28;20424;-81
2023/04/04 07:24:29;;;;;;;6.72;4.10;;;;;;;;;;5037096;28;20908;-82
2023/04/04 07:26:55;;;;;;;7.93;3.70;;;;;;;;;;5052931;28;20416;-82
2023/04/04 07:29:22;;;;;;;6.45;3.22;;;;;;;;;;5054466;28;20423;-82
2023/04/04 07:31:48;;;;;;;7.75;3.60;;;;;;;;;;5043587;28;20425;-81
2023/04/04 07:34:14;;;;;;;9.55;4.35;;;;;;;;;;5049843;28;20491;-80
2023/04/04 07:36:41;;;;;;;7.32;3.50;;;;;;;;;;5045998;28;21067;-81
2023/04/04 07:39:07;;;;;;;6.18;3.47;;;;;;;;;;5053826;28;22121;-81
2023/04/04 07:41:33;;;;;;;5.72;3.08;;;;;;;;;;5058107;28;20415;-79
2023/04/04 07:43:59;;;;;;;7.03;3.15;;;;;;;;;;5053968;28;20477;-81
2023/04/04 07:46:26;;;;;;;5.10;2.72;;;;;;;;;;5068792;28;20534;-80
2023/04/04 07:48:52;;;;;;;7.85;4.65;;;;;;;;;;5053562;28;20403;-79
2023/04/04 07:51:27;;;;;;;5.83;2.80;;;;;;;;;;5051625;28;20482;-79
2023/04/04 07:53:53;;;;;;;6.03;3.15;;;;;;;;;;5053219;28;20503;-78
2023/04/04 07:56:20;;;;;;;8.07;3.50;;;;;;;;;;5062897;28;20473;-78
2023/04/04 07:58:46;;;;;;;6.50;2.53;;;;;;;;;;5072325;28;20424;-77
2023/04/04 08:01:12;;;;;;;4.40;2.53;;;;;;;;;;5065264;28;20543;-77
2023/04/04 08:03:39;;;;;;;5.60;2.80;;;;;;;;;;5049073;28;20424;-78
2023/04/04 08:06:05;;;;;;;4.70;2.38;;;;;;;;;;5053945;28;20427;-78
2023/04/04 08:08:33;;;;;;;7.10;2.58;;;;;;;;;;5057959;28;20511;-78
2023/04/04 08:10:59;;;;;;;5.97;2.75;;;;;;;;;;5067842;28;20451;-78
2023/04/04 08:13:25;;;;;;;9.90;5.18;;;;;;;;;;5046280;28;20438;-77
2023/04/04 08:15:51;;;;;;;6.68;3.28;;;;;;;;;;5048663;28;20472;-77
2023/04/04 08:18:18;;;;;;;6.25;2.80;;;;;;;;;;5032119;28;20424;-77
2023/04/04 08:20:44;;;;;;;6.47;2.88;;;;;;;;;;5068798;28;20430;-77
2023/04/04 08:23:11;;;;;;;5.28;2.50;;;;;;;;;;5044990;28;20411;-78
2023/04/04 08:25:38;;;;;;;4.55;2.15;;;;;;;;;;5038603;28;20905;-77
2023/04/04 08:28:04;;;;;;;6.55;2.90;;;;;;;;;;5063344;28;20428;-77
2023/04/04 08:30:31;;;;;;;4.50;2.00;;;;;;;;;;5066020;28;20455;-76
2023/04/04 08:32:57;;;;;;;5.38;2.15;;;;;;;;;;5067024;28;20419;-79
2023/04/04 08:35:23;;;;;;;3.70;2.00;;;;;;;;;;5049218;28;20411;-78
2023/04/04 08:37:49;;;;;;;4.25;2.10;;;;;;;;;;5050762;28;20428;-77
2023/04/04 08:40:15;;;;;;;5.50;2.30;;;;;;;;;;5048471;28;20427;-78
2023/04/04 08:42:43;;;;;;;4.78;2.10;;;;;;;;;;5068211;28;20451;-77
2023/04/04 08:45:10;;;;;;;11.35;5.30;;;;;;;;;;5064679;28;20423;-77
2023/04/04 08:47:37;;;;;;;8.63;3.90;;;;;;;;;;5062532;28;20421;-78
2023/04/04 08:50:05;;;;;;;5.90;2.80;;;;;;;;;;5049683;28;20520;-77
2023/04/04 08:52:32;;;;;;;3.13;1.75;;;;;;;;;;5069342;28;20428;-77
2023/04/04 08:54:58;;;;;;;6.60;3.10;;;;;;;;;;5053504;28;20403;-77
2023/04/04 08:57:24;;;;;;;5.22;2.30;;;;;;;;;;5046833;28;20424;-78
2023/04/04 08:59:50;;;;;;;5.40;1.95;;;;;;;;;;5051332;28;20431;-78
2023/04/04 09:02:28;;;;;;;5.13;2.00;;;8.90;99.90;;;;;;5064696;28;20506;-78
2023/04/04 09:04:55;;;;;;;4.97;2.20;;;;;;;;;;5052523;28;20420;-78
2023/04/04 09:07:22;;;;;;;4.90;2.42;;;;;;;;;;5049268;28;20511;-79
2023/04/04 09:09:49;;;;;;;4.05;2.20;;;;;;;;;;5044124;28;20416;-81
2023/04/04 09:12:16;;;;;;;5.40;2.17;;;;;;;;;;5064643;28;20491;-79
2023/04/04 09:14:43;;;;;;;5.70;2.20;;;;;;;;;;5063161;28;20488;-80
2023/04/04 09:17:09;;;;;;;4.43;2.13;;;;;;;;;;5039611;28;20429;-81
2023/04/04 09:19:38;;;;;;;5.15;2.10;;;;;;;;;;5041298;28;20423;-81
2023/04/04 09:22:08;;;;;;;5.40;2.47;;;;;;;;;;5047099;28;20835;-80
2023/04/04 09:24:42;;;;;;;5.03;2.20;;;;;;;;;;5053811;28;20466;-79
2023/04/04 09:27:09;;;;;;;7.63;2.20;;;;;;;;;;5064470;28;20462;-79
2023/04/04 09:29:37;;;;;;;5.43;1.60;;;;;;;;;;5045248;28;22345;-79
2023/04/04 09:32:03;;;;;;;5.80;2.22;;;;;;;;;;5062576;28;20422;-80
2023/04/04 09:34:30;;;;;;;5.43;1.90;;;;;;;;;;5050056;28;20948;-80
2023/04/04 09:36:57;;;;;;;5.50;2.10;;;;;;;;;;5050040;28;20561;-81
2023/04/04 09:39:23;;;;;;;5.67;2.20;;;;;;;;;;5047631;28;20468;-80
2023/04/04 09:41:49;;;;;;;4.78;1.73;;;;;;;;;;5049487;28;20423;-81
2023/04/04 09:44:16;;;;;;;6.45;2.38;;;;;;;;;;5047742;28;20990;-79
2023/04/04 09:46:42;;;;;;;4.85;1.90;;;;;;;;;;5046555;28;20423;-80
2023/04/04 09:49:20;;;;;;;7.17;2.70;;;;;;;;;;5062357;28;20426;-80
2023/04/04 09:51:53;;;;;;;6.10;2.08;;;;;;;;;;5061770;28;20418;-79
2023/04/04 09:54:23;;;;;;;5.78;2.58;;;;;;;;;;5048269;28;20498;-80
2023/04/04 09:56:50;;;;;;;5.72;2.20;;;;;;;;;;5039228;28;20498;-79
2023/04/04 09:59:19;;;;;;;6.95;2.10;;;;;;;;;;5065291;28;20427;-79
2023/04/04 10:01:45;;;;;;;5.78;2.35;;;;;;;;;;5027419;28;20421;-79
2023/04/04 10:04:13;;;;;;;5.82;2.45;;;9.70;99.90;;;;;;5042922;28;20417;-80
2023/04/04 10:06:39;;;;;;;3.80;2.00;;;;;;;;;;5070414;28;20419;-80
2023/04/04 10:09:07;;;;;;;6.70;2.40;;;;;;;;;;5066273;28;20934;-80
2023/04/04 10:11:33;;;;;;;4.90;2.53;;;;;;;;;;5098858;28;20424;-81
2023/04/04 10:14:01;;;;;;;6.95;2.50;;;;;;;;;;5060958;28;20501;-81
2023/04/04 10:16:31;;;;;;;6.60;2.95;;;;;;;;;;5082142;28;20460;-82
2023/04/04 10:18:58;;;;;;;6.00;2.83;;;;;;;;;;5046851;28;20431;-81
2023/04/04 10:21:24;;;;;;;5.93;2.60;;;;;;;;;;5063152;28;20432;-81
2023/04/04 10:23:51;;;;;;;5.43;2.67;;;;;;;;;;5050600;28;20403;-81
2023/04/04 10:26:17;;;;;;;4.85;2.75;;;;;;;;;;5051793;28;20431;-81
2023/04/04 10:28:44;;;;;;;6.10;2.72;;;;;;;;;;5068156;28;20419;-81
2023/04/04 10:31:23;;;;;;;7.03;2.80;;;;;;;;;;5045972;28;20425;-81
2023/04/04 10:34:02;;;;;;;6.40;2.90;;;;;;;;;;5032850;28;20417;-81
2023/04/04 10:36:30;;;;;;;6.55;3.08;;;;;;;;;;5070487;28;20427;-80
2023/04/04 10:39:13;;;;;;;7.55;3.20;;;;;;;;;;5072430;28;20412;-79
2023/04/04 10:41:40;;;;;;;6.50;2.92;;;;;;;;;;5053398;28;20427;-80
2023/04/04 10:44:13;;;;;;;5.85;2.97;;;;;;;;;;5051088;28;20484;-80
2023/04/04 10:46:41;;;;;;;6.35;2.75;;;;;;;;;;5069003;28;20423;-80
2023/04/04 10:49:07;;;;;;;6.15;2.80;;;;;;;;;;5069152;28;20772;-81
2023/04/04 10:51:34;;;;;;;5.95;3.17;;;;;;;;;;5055309;28;20408;-81
2023/04/04 10:54:00;;;;;;;5.22;2.80;;;;;;;;;;5039939;28;20425;-81
2023/04/04 10:56:26;;;;;;;6.18;3.00;;;;;;;;;;5071283;28;20692;-81
2023/04/04 10:59:08;;;;;;;5.83;2.90;;;;;;;;;;5067945;28;20427;-81
2023/04/04 11:01:54;;;;;;;7.10;3.07;;;;;;;;;;5069489;28;20988;-82
2023/04/04 11:04:22;;;;;;;5.43;2.97;;;;;;;;;;5056348;28;20471;-82
2023/04/04 11:07:20;;;;;;;7.05;2.97;;;;;;;;;;5049629;28;20967;-81
2023/04/04 11:09:47;;;;;;;6.20;2.80;;;;;;;;;;4990104;28;20428;-82
2023/04/04 11:12:19;;;;;;;6.78;3.22;;;;;;;;;;5071936;28;20431;-81
2023/04/04 11:15:09;;;;;;;5.32;2.85;;;;;;;;;;5064215;28;20425;-82
2023/04/04 11:17:51;;;;;;;6.53;3.08;;;;;;;;;;5050637;28;20474;-81
2023/04/04 11:20:20;;;;;;;8.07;3.08;;;;;;;;;;5070980;28;20489;-81
2023/04/04 11:22:48;;;;;;;5.68;3.03;;;;;;;;;;5068641;28;20439;-80
2023/04/04 11:25:24;;;;;;;5.30;2.73;;;;;;;;;;5044882;28;20427;-81
2023/04/04 11:27:53;;;;;;;7.22;2.97;;;;;;;;;;5058574;28;20792;-80
2023/04/04 11:30:20;;;;;;;6.00;2.90;;;;;;;;;;5052008;28;20943;-80
2023/04/04 11:32:50;;;;;;;7.38;3.20;;;;;;;;;;5035811;28;20431;-80
2023/04/04 11:35:17;;;;;;;5.78;3.08;;;;;;;;;;5049819;28;20531;-80
2023/04/04 11:38:03;;;;;;;6.00;3.00;;;;;;;;;;5051491;28;20421;-79
2023/04/04 11:40:36;;;;;;;4.88;2.70;;;;;;;;;;5067598;28;20423;-79
2023/04/04 11:43:07;;;;;;;7.60;3.10;;;;;;;;;;5068497;28;20419;-80
2023/04/04 11:45:34;;;;;;;7.30;3.30;;;;;;;;;;5046751;28;20494;-82
2023/04/04 11:48:01;;;;;;;6.40;2.92;;;;;;;;;;5060620;28;20440;-80
2023/04/04 11:50:34;;;;;;;5.40;2.90;;;;;;;;;;5065431;28;20420;-80
2023/04/04 11:53:01;;;;;;;7.80;3.05;;;;;;;;;;5052442;28;20415;-80
2023/04/04 11:55:27;;;;;;;5.22;2.95;;;;;;;;;;5063831;28;20903;-79
2023/04/04 11:57:54;;;;;;;6.60;3.20;;;;;;;;;;5046686;28;20594;-80
2023/04/04 12:00:38;;;;;;;6.53;2.88;;;;;;;;;;5032139;28;20921;-79
2023/04/04 12:03:10;;;;;;;5.72;3.05;;;;;;;;;;5046423;28;20459;-79
2023/04/04 12:05:37;;;;;;;5.78;2.80;;;;;;;;;;5047583;28;20731;-80
2023/04/04 12:08:04;;;;;;;5.55;2.92;;;;;;;;;;5068288;28;20931;-79
2023/04/04 12:10:33;;;;;;;5.47;2.83;;;;;;;;;;5065471;28;20447;-80
2023/04/04 12:12:59;;;;;;;7.07;3.10;;;;;;;;;;5045799;28;20816;-81
2023/04/04 12:15:28;;;;;;;7.53;3.00;;;;;;;;;;5061037;28;20511;-81
2023/04/04 12:17:55;;;;;;;5.43;3.10;;;;;;;;;;5079873;28;20428;-81
2023/04/04 12:20:24;;;;;;;6.33;3.00;;;;;;;;;;5060151;28;20413;-78
2023/04/04 12:22:51;;;;;;;6.27;2.80;;;;;;;;;;5048427;28;20983;-79
2023/04/04 12:25:21;;;;;;;6.35;3.03;;;11.60;99.90;;;;;;5095152;28;20423;-78
2023/04/04 12:27:49;;;;;;;4.82;2.95;;;;;;;;;;5045922;28;20423;-78
2023/04/04 12:30:15;;;;;;;6.35;3.08;;;;;;;;;;5085112;28;20428;-78
2023/04/04 12:32:48;;;;;;;7.03;2.78;;;;;;;;;;5067267;28;20775;-78
2023/04/04 12:35:15;;;;;;;7.70;3.05;;;;;;;;;;5053736;28;20485;-78
2023/04/04 12:38:01;;;;;;;5.67;2.90;;;;;;;;;;5061082;28;20613;-78
2023/04/04 12:40:36;;;;;;;7.50;3.15;;;;;;;;;;5081376;28;20717;-78
2023/04/04 12:43:03;;;;;;;5.28;2.78;;;;;;;;;;5068040;28;20509;-78
2023/04/04 12:45:29;;;;;;;5.53;2.88;;;;;;;;;;5046286;28;21081;-78
2023/04/04 12:47:57;;;;;;;5.70;3.17;;;;;;;;;;5095245;28;20425;-78
2023/04/04 12:50:26;;;;;;;6.80;3.10;;;;;;;;;;5049499;28;20417;-78
2023/04/04 12:52:53;;;;;;;5.75;3.08;;;;;;;;;;5058040;28;20413;-78
2023/04/04 12:55:23;;;;;;;5.10;2.92;;;;;;;;;;5047276;28;20781;-77
2023/04/04 12:57:49;;;;;;;8.40;3.50;;;;;;;;;;5044510;28;20415;-78
2023/04/04 13:00:17;;;;;;;5.03;2.83;;;;;;;;;;5060327;28;21097;-79
2023/04/04 13:02:45;;;;;;;6.38;2.90;;;;;;;;;;5063410;28;20456;-78
2023/04/04 13:05:12;;;;;;;7.40;3.08;;;;;;;;;;5081442;28;20464;-78
2023/04/04 13:07:42;;;;;;;6.53;3.25;;;;;;;;;;5059112;28;20798;-78
2023/04/04 13:10:08;;;;;;;6.22;2.83;;;;;;;;;;5074381;28;20412;-78
2023/04/04 13:12:55;;;;;;;5.60;3.17;;;;;;;;;;5058408;28;20451;-78
2023/04/04 13:15:22;;;;;;;5.75;3.17;;;;;;;;;;5063286;28;20427;-78
2023/04/04 13:17:50;;;;;;;5.72;2.80;;;;;;;;;;5062120;28;20518;-78
2023/04/04 13:20:17;;;;;;;6.13;3.05;;;;;;;;;;5062381;28;20433;-78
2023/04/04 13:22:43;;;;;;;6.70;3.00;;;;;;;;;;5078381;28;20842;-79
2023/04/04 13:25:10;;;;;;;7.15;3.20;;;;;;;;;;5051033;28;20470;-78
2023/04/04 13:27:36;;;;;;;5.63;3.00;;;13.20;99.90;;;;;;5064394;28;20476;-78
2023/04/04 13:30:07;;;;;;;6.85;3.10;;;;;;;;;;5052201;28;20433;-79
2023/04/04 13:32:33;;;;;;;6.63;3.40;;;;;;;;;;5058211;28;20411;-78
2023/04/04 13:34:59;;;;;;;5.70;3.03;;;;;;;;;;5082867;28;20461;-77
2023/04/04 13:37:26;;;;;;;5.38;3.15;;;;;;;;;;5032758;28;20479;-78
2023/04/04 13:39:52;;;;;;;7.07;3.00;;;;;;;;;;5048895;28;20455;-78
2023/04/04 13:42:20;;;;;;;6.22;3.28;;;;;;;;;;5049876;28;20756;-78
2023/04/04 13:44:46;;;;;;;6.23;3.17;;;;;;;;;;5042411;28;20512;-79
2023/04/04 13:47:12;;;;;;;5.95;2.90;;;;;;;;;;5063407;28;20445;-78
2023/04/04 13:49:38;;;;;;;5.82;2.88;;;;;;;;;;5042303;28;20433;-78
2023/04/04 13:52:04;;;;;;;4.57;3.00;;;;;;;;;;5063337;28;20418;-78
2023/04/04 13:54:30;;;;;;;7.40;3.33;;;;;;;;;;5050985;28;20408;-77
2023/04/04 13:56:57;;;;;;;9.43;3.30;;;;;;;;;;5062479;28;20411;-77
2023/04/04 13:59:23;;;;;;;6.93;3.30;;;;;;;;;;5065023;28;20973;-78
2023/04/04 14:01:49;;;;;;;7.78;3.42;;;;;;;;;;5048733;28;20422;-77
2023/04/04 14:04:15;;;;;;;6.47;2.90;;;;;;;;;;5048980;28;20759;-78
2023/04/04 14:06:41;;;;;;;6.63;3.30;;;;;;;;;;5038925;28;20425;-78
2023/04/04 14:09:07;;;;;;;6.10;3.08;;;;;;;;;;5044728;28;20431;-78
2023/04/04 14:11:34;;;;;;;6.00;2.93;;;;;;;;;;5085666;28;20930;-76
2023/04/04 14:14:00;;;;;;;6.45;3.08;;;;;;;;;;5064134;28;20427;-77
2023/04/04 14:16:26;;;;;;;7.90;3.13;;;;;;;;;;5103704;28;20423;-77
2023/04/04 14:18:52;;;;;;;7.30;3.22;;;;;;;;;;5047335;28;20427;-79
2023/04/04 14:21:18;;;;;;;7.00;3.20;;;;;;;;;;5068586;28;20423;-78
2023/04/04 14:23:44;;;;;;;6.68;3.00;;;;;;;;;;5047291;28;20399;-77
2023/04/04 14:26:10;;;;;;;7.65;3.33;;;;;;;;;;5065136;28;20476;-77
2023/04/04 14:28:37;;;;;;;5.57;2.92;;;;;;;;;;5071866;28;20427;-77
2023/04/04 14:31:05;;;;;;;5.32;2.80;;;;;;;;;;5047854;28;20423;-77
2023/04/04 14:33:31;;;;;;;6.55;3.28;;;;;;;;;;5046592;28;20431;-78
2023/04/04 14:35:57;;;;;;;7.05;3.38;;;;;;;;;;5052789;28;20505;-79
2023/04/04 14:38:23;;;;;;;5.40;2.90;;;;;;;;;;5060661;28;20421;-79